createdAt,value
2023-04-04T00:01:10.876Z,2.23
2023-04-04T00:03:38.809Z,2.00
2023-04-04T00:06:07.763Z,2.20
2023-04-04T00:08:35.572Z,2.03
2023-04-04T00:11:06.483Z,2.30
2023-04-04T00:13:34.391Z,2.30
2023-04-04T00:16:02.408Z,2.20
2023-04-04T00:18:30.220Z,2.10
2023-04-04T00:20:58.017Z,2.33
2023-04-04T00:23:25.845Z,2.40
2023-04-04T00:25:53.798Z,2.40
2023-04-04T00:28:23.172Z,2.30
2023-04-04T00:30:50.947Z,2.50
2023-04-04T00:33:18.785Z,2.43
2023-04-04T00:35:46.644Z,2.50
2023-04-04T00:38:14.416Z,2.40
2023-04-04T00:40:43.170Z,2.90
2023-04-04T00:43:11.571Z,2.60
2023-04-04T00:45:41.430Z,2.50
2023-04-04T00:48:09.288Z,2.70
2023-04-04T00:50:37.096Z,2.83
2023-04-04T00:53:04.936Z,3.00
2023-04-04T00:55:32.863Z,2.60
2023-04-04T00:58:01.191Z,2.87
2023-04-04T01:00:29.267Z,2.67
2023-04-04T01:02:58.473Z,2.70
2023-04-04T01:05:26.431Z,3.27
2023-04-04T01:07:54.196Z,3.57
2023-04-04T01:10:22.204Z,3.23
2023-04-04T01:12:49.936Z,3.10
2023-04-04T01:15:17.736Z,3.10
2023-04-04T01:17:45.790Z,3.10
2023-04-04T01:20:15.930Z,2.97
2023-04-04T01:22:45.122Z,3.00
2023-04-04T01:25:13.262Z,3.00
2023-04-04T01:27:42.434Z,2.90
2023-04-04T01:30:11.143Z,3.20
2023-04-04T01:32:42.689Z,2.90
2023-04-04T01:35:21.292Z,3.20
2023-04-04T01:37:52.035Z,3.20
2023-04-04T01:40:22.686Z,2.80
2023-04-04T01:42:52.441Z,3.10
2023-04-04T01:45:23.085Z,3.10
2023-04-04T01:47:50.947Z,3.20
2023-04-04T01:50:18.770Z,3.07
2023-04-04T01:52:47.095Z,3.17
2023-04-04T01:55:14.826Z,3.50
2023-04-04T01:57:42.588Z,3.37
2023-04-04T02:00:12.509Z,3.20
2023-04-04T02:02:40.763Z,3.80
2023-04-04T02:05:08.942Z,3.67
2023-04-04T02:07:36.639Z,3.77
2023-04-04T02:10:04.558Z,3.90
2023-04-04T02:12:32.323Z,4.30
2023-04-04T02:15:00.474Z,3.77
2023-04-04T02:17:29.650Z,3.70
2023-04-04T02:19:57.767Z,4.10
2023-04-04T02:22:25.470Z,4.60
2023-04-04T02:24:53.859Z,4.43
2023-04-04T02:27:21.703Z,5.20
2023-04-04T02:29:49.435Z,4.63
2023-04-04T02:32:18.475Z,5.07
2023-04-04T02:34:47.782Z,5.20
2023-04-04T02:37:15.643Z,4.47
2023-04-04T02:39:43.349Z,5.20
2023-04-04T02:42:11.272Z,4.77
2023-04-04T02:44:39.077Z,5.47
2023-04-04T02:47:07.509Z,5.40
2023-04-04T02:49:35.912Z,5.40
2023-04-04T02:52:05.224Z,5.27
2023-04-04T02:54:33.152Z,5.23
2023-04-04T02:57:00.843Z,4.97
2023-04-04T02:59:29.070Z,5.43
2023-04-04T03:01:57.165Z,5.67
2023-04-04T03:04:24.939Z,5.23
2023-04-04T03:06:52.676Z,5.53
2023-04-04T03:09:22.074Z,5.43
2023-04-04T03:11:51.656Z,5.20
2023-04-04T03:14:19.460Z,5.40
2023-04-04T03:16:50.000Z,5.90
2023-04-04T03:19:17.856Z,5.77
2023-04-04T03:21:45.909Z,5.57
2023-04-04T03:24:13.901Z,5.47
2023-04-04T03:26:43.303Z,5.30
2023-04-04T03:29:11.182Z,4.80
2023-04-04T03:31:38.913Z,5.97
2023-04-04T03:34:06.665Z,5.70
2023-04-04T03:36:34.374Z,5.70
2023-04-04T03:39:02.112Z,5.90
2023-04-04T03:41:29.826Z,5.80
2023-04-04T03:43:58.970Z,5.80
2023-04-04T03:46:27.041Z,5.73
2023-04-04T03:48:54.819Z,5.80
2023-04-04T03:51:25.841Z,5.60
2023-04-04T03:53:53.638Z,5.40
2023-04-04T03:56:21.406Z,5.03
2023-04-04T03:58:49.260Z,4.87
2023-04-04T04:01:18.519Z,5.27
2023-04-04T04:03:46.903Z,5.70
2023-04-04T04:06:14.720Z,6.43
2023-04-04T04:08:42.427Z,6.40
2023-04-04T04:11:10.283Z,7.13
2023-04-04T04:13:39.010Z,7.57
2023-04-04T04:16:07.165Z,8.47
2023-04-04T04:18:36.745Z,8.17
2023-04-04T04:21:05.167Z,9.00
2023-04-04T17:42:23.240Z,1.27
2023-04-04T17:44:52.385Z,1.30
2023-04-04T17:47:20.256Z,1.30
2023-04-04T17:49:47.991Z,1.23
2023-04-04T17:52:19.264Z,1.40
2023-04-04T17:54:47.983Z,1.40
2023-04-04T17:57:15.864Z,1.43
2023-04-04T17:59:44.236Z,1.30
2023-04-04T18:02:13.554Z,1.27
2023-04-04T18:04:41.376Z,1.40
2023-04-04T18:07:09.383Z,1.20
2023-04-04T18:09:37.163Z,1.00
2023-04-04T18:12:05.002Z,1.20
2023-04-04T18:14:32.723Z,1.40
2023-04-04T18:17:00.442Z,1.50
2023-04-04T18:19:35.492Z,1.30
2023-04-04T18:22:04.033Z,1.40
2023-04-04T18:24:31.818Z,1.40
2023-04-04T18:26:59.541Z,1.30
2023-04-04T18:29:27.332Z,1.20
2023-04-04T18:31:55.220Z,1.30
2023-04-04T18:34:22.989Z,1.33
2023-04-04T18:36:52.066Z,1.40
2023-04-04T18:39:19.785Z,1.30
2023-04-04T18:41:47.594Z,1.30
2023-04-04T18:44:15.729Z,1.30
2023-04-04T18:46:43.468Z,1.20
2023-04-04T18:49:11.839Z,1.10
2023-04-04T18:51:39.549Z,0.97
2023-04-04T18:54:08.808Z,1.00
2023-04-04T18:56:37.954Z,1.03
2023-04-04T18:59:07.235Z,1.10
2023-04-04T19:01:35.948Z,0.70
2023-04-04T19:04:04.449Z,0.80
2023-04-04T19:06:33.407Z,0.97
2023-04-04T19:09:04.061Z,1.00
2023-04-04T19:11:33.534Z,0.80
2023-04-04T19:14:01.319Z,0.80
2023-04-04T19:16:29.098Z,0.90
2023-04-04T19:18:56.854Z,0.80
2023-04-04T19:21:24.803Z,0.90
2023-04-04T19:23:53.127Z,0.90
2023-04-04T19:26:21.465Z,0.97
2023-04-04T19:28:50.834Z,0.90
2023-04-04T19:31:21.589Z,0.80
2023-04-04T19:33:49.571Z,0.90
2023-04-04T19:36:17.643Z,0.90
2023-04-04T19:38:45.516Z,0.87
2023-04-04T19:41:13.874Z,0.90
2023-04-04T19:43:42.872Z,0.90
2023-04-04T19:46:13.465Z,0.93
2023-04-04T19:48:43.100Z,1.10
2023-04-04T19:51:11.637Z,1.10
2023-04-04T19:53:39.352Z,1.10
2023-04-04T19:56:08.488Z,1.20
2023-04-04T19:58:36.471Z,1.00
2023-04-04T20:01:04.895Z,1.10
2023-04-04T20:03:36.894Z,1.23
2023-04-04T20:06:08.094Z,1.20
2023-04-04T20:08:40.098Z,1.00
2023-04-04T20:11:08.210Z,1.10
2023-04-04T20:13:36.995Z,1.10
2023-04-04T20:16:05.911Z,1.10
2023-04-04T20:18:35.578Z,1.10
2023-04-04T20:21:06.148Z,1.10
2023-04-04T20:23:39.045Z,1.00
2023-04-04T20:26:09.650Z,1.00
2023-04-04T20:28:37.668Z,1.20
2023-04-04T20:31:08.371Z,1.00
2023-04-04T20:33:40.005Z,1.00
2023-04-04T20:36:09.110Z,1.00
2023-04-04T20:38:37.594Z,1.10
2023-04-04T20:41:11.494Z,1.00
2023-04-04T20:43:39.344Z,1.10
2023-04-04T20:46:07.074Z,1.20
2023-04-04T20:48:36.811Z,1.20
2023-04-04T20:51:08.553Z,1.00
2023-04-04T20:53:36.402Z,1.20
2023-04-04T20:56:06.757Z,1.20
2023-04-04T20:58:34.471Z,1.27
2023-04-04T21:01:02.459Z,1.10
2023-04-04T21:03:31.598Z,1.10
2023-04-04T21:06:02.177Z,1.10
2023-04-04T21:08:39.416Z,1.20
2023-04-04T21:11:07.902Z,1.00
2023-04-04T21:13:37.346Z,1.13
2023-04-04T21:16:07.989Z,1.10
2023-04-04T21:18:36.243Z,1.20
2023-04-04T21:21:21.625Z,1.10
2023-04-04T21:23:52.756Z,1.10
2023-04-04T21:26:31.236Z,1.10
2023-04-04T21:28:59.564Z,1.10
2023-04-04T21:31:29.777Z,1.13
2023-04-04T21:33:58.275Z,1.10
2023-04-04T21:36:28.712Z,1.30
2023-04-04T21:38:58.530Z,1.30
2023-04-04T21:41:26.945Z,1.10
2023-04-04T21:43:55.058Z,1.30
2023-04-04T21:46:23.158Z,1.23
2023-04-04T21:48:51.178Z,1.10
2023-04-04T21:51:18.932Z,1.00
2023-04-04T21:53:46.748Z,1.20
2023-04-04T21:56:16.141Z,1.20
2023-04-04T21:58:43.998Z,0.90
2023-04-04T22:01:11.752Z,1.10
2023-04-04T22:03:39.541Z,1.10
2023-04-04T22:06:07.528Z,1.00
2023-04-04T22:08:35.380Z,1.10
2023-04-04T22:11:03.179Z,1.20
2023-04-04T22:13:33.395Z,1.20
2023-04-04T22:16:01.878Z,1.10
2023-04-04T22:18:33.364Z,1.30
2023-04-04T22:21:03.696Z,1.13
2023-04-04T22:23:35.773Z,1.13
2023-04-04T22:26:05.250Z,1.20
2023-04-04T22:28:35.891Z,1.00
2023-04-04T22:31:03.607Z,1.17
2023-04-04T22:33:31.427Z,1.10
2023-04-04T22:35:59.267Z,1.10
2023-04-04T22:38:27.231Z,1.20
2023-04-04T22:40:55.119Z,1.17
2023-04-04T22:43:23.054Z,1.27
2023-04-04T22:45:52.187Z,1.20
2023-04-04T22:48:23.111Z,1.10
2023-04-04T22:50:55.534Z,1.20
2023-04-04T22:53:25.082Z,1.10
2023-04-04T22:55:53.440Z,1.00
2023-04-04T22:58:23.986Z,1.10
2023-04-04T23:00:53.162Z,1.10
2023-04-04T23:03:21.382Z,1.20
2023-04-04T23:05:49.117Z,1.00
2023-04-04T23:08:16.850Z,1.20
2023-04-04T23:10:44.732Z,1.20
2023-04-04T23:13:12.422Z,1.20
2023-04-04T23:15:41.517Z,1.40
2023-04-04T23:18:11.464Z,1.60
2023-04-04T23:20:39.562Z,1.30
2023-04-04T23:23:07.462Z,1.40
2023-04-04T23:25:35.153Z,1.27
2023-04-04T23:28:02.887Z,1.50
2023-04-04T23:30:31.072Z,1.60
2023-04-04T23:32:58.799Z,1.40
2023-04-04T23:35:27.906Z,1.57
2023-04-04T23:37:55.601Z,1.40
2023-04-04T23:40:23.479Z,1.60
2023-04-04T23:42:51.298Z,1.30
2023-04-04T23:45:19.083Z,1.50
2023-04-04T23:47:46.895Z,1.40
2023-04-04T23:50:14.736Z,1.40
2023-04-04T23:52:43.857Z,1.40
2023-04-04T23:55:11.564Z,1.40
2023-04-04T23:57:39.266Z,1.43
